Aviation Digital Data Service (ADDS)

Output produced by METARs form (2234 UTC 30 March 2017)
found at http://www.aviationweather.gov/adds/metars/
 
YPAD 302200Z 03003KT 9999 BKN048 13/07 Q1024 NOSIG
TAF YPAD 301713Z 3018/3124 06005KT 9999 SCT045 
     FM302000 03005KT 9999 BKN030 
     FM310200 22012KT 9999 BKN030 
     FM311700 22007KT 9999 -SHRA SCT025 BKN030
       
YABA 302230Z AUTO 34002KT 3800 // NCD 06/06 Q1026
YMAY 302200Z AUTO 16005KT 9999 // NCD 11/05 Q1020
YBAS 302200Z AUTO 16005KT 9999 // NCD 13/M03 Q1022 RF00.0/000.0
TAF YBAS 301704Z 3018/3118 14010KT CAVOK
       
YAMB 302200Z 22009KT 240V300 9999 FEW021 BKN043 22/17 Q1007 FM2200 MOD TURB BLW 5000FT
TAF AMD YAMB 302208Z 3022/3112 21011KT 9999 SCT020 BKN045 
     FM310000 18014KT 9999 SCT045 
     FM310600 14012KT 9999 SCT050
       
YARG 302200Z AUTO 00000KT 9999 // NCD 26/21 Q1014
YMAV 302200Z AUTO 28010KT 9999 // OVC055 12/08 Q1022 RF00.0/000.2
TAF YMAV 301701Z 3018/3118 28007KT 9999 SCT040 
     FM310000 23012KT 9999 SCT045 
     BECMG 3109/3111 31010KT 9999 SCT045
       
YAYE 302200Z AUTO 12005KT 9999 // NCD 16/00 Q1022
YLEC 302200Z AUTO 21002KT //// // ////// 13/03 Q1023
YLHI 302200Z 04015KT 9999 FEW026 BKN060 BKN080 24/20 Q1009
TAF AMD YLHI 301851Z 3019/3118 03020G35KT 9999 -SHRA SCT020 BKN030 
     BECMG 3101/3102 05025G40KT 7000 SHRA SCT015 BKN020 
     FM311400 05020G30KT 9999 -SHRA SCT010 BKN015 INTER 3019/3102 3000 SHRA BKN015 
     TEMPO 3102/3114 2000 SHRA BKN010 INTER 3114/3118 4000 SHRA BKN015
       
YLRE 302200Z 15013KT CAVOK 20/01 Q1015
YBNA 302200Z AUTO 21020G40KT 9999 // SCT018 SCT030 OVC039 21/17 Q1006
YBWX 302200Z AUTO 18007KT //// // ////// 29/25 Q1013
YBDV 302200Z AUTO 15007KT //// // ////// 16/M00 Q1020
YBAS 302200Z AUTO 16005KT 9999 // NCD 13/M03 Q1022 RF00.0/000.0
TAF YBAS 301704Z 3018/3118 14010KT CAVOK
       
YBBN 302210Z 20018G29KT 9999 FEW020 SCT040 24/16 Q1005 RMK FM2210 MOD/SEV TURB BLW 5000FT FM2300 MOD TURB BLW 5000FT
TAF YBBN 301713Z 3017/3124 22016G30KT 9999 SCT025 SCT030 
     FM310300 18015KT 9999 SCT030 
     FM311200 21013KT 9999 SCT060
       
YBCG 302230Z AUTO 20021G35KT 9999 // BKN032 OVC037 22/16 Q1004
TAF AMD YBCG 302149Z 3021/3118 18025G40KT 9999 BKN025 BKN045 
     FM310900 20020G30KT 9999 SCT020 BKN040
       
YBCS 302200Z 14003KT CAVOK 28/25 Q1009
TAF YBCS 301735Z 3018/3118 VRB06KT 9999 FEW015 
     FM310000 02010KT 9999 FEW025 
     FM310400 13012KT 9999 -SHRA FEW028 
     FM310800 17006KT 9999 FEW015
       
YBCV 302200Z AUTO 18009KT 9999 // NCD 16/M01 Q1016
YBDV 302200Z AUTO 15007KT //// // ////// 16/M00 Q1020
YBHI 302200Z AUTO 21009KT 9999 // NCD 11/04 Q1023
YBHM 302200Z AUTO ///07KT 9999 // NCD ///// Q1010
TAF AMD YBHM 302013Z 3020/3106 31014KT 9999 FEW008 
     FM302200 16018KT 9999 FEW025 
     FM310400 13015KT 9999 FEW030
       
YBMA 302200Z AUTO 16009KT 9999 // NCD 20/02 Q1016
TAF YBMA 301613Z 3018/3106 17015KT CAVOK 
     FM302200 15014KT CAVOK
       
YBMK 302200Z AUTO 18006KT 9999 // NCD 26/22 Q1010
YBNA 302200Z AUTO 21020G40KT 9999 // SCT018 SCT030 OVC039 21/17 Q1006
YBOK 302200Z AUTO 28009KT 9999 // OVC019 14/10 Q1011
YBPN 302200Z AUTO 00000KT 9999 // NCD 27/26 Q1009
YBRK 302200Z AUTO 20011KT 9999 // NCD 20/08 Q1011
TAF YBRK 301709Z 3018/3118 22010KT CAVOK 
     FM311200 24005KT CAVOK
       
YBRM 302200Z AUTO 11008KT 9999 // NCD 28/19 Q1011
TAF YBRM 301704Z 3018/3118 14010KT CAVOK 
     FM310600 23012KT CAVOK
       
YBTL 302200Z 21010KT CAVOK 29/15 Q1009 NOSIG
TAF AMD YBTL 301605Z 3016/3118 VRB03KT 9999 FEW010 
     FM302000 20013KT 9999 FEW030 
     FM310400 07013KT 9999 FEW040 
     FM311000 16007KT 9999 FEW012 
     TEMPO 3016/3020 9999 NSW BKN006
       
YBUD 302204Z AUTO 25016G26KT 9999 // NCD 20/10 Q1008
YBWP 302200Z AUTO 17001KT 9999 // SCT032 27/25 Q1010
YBWX 302200Z AUTO 18007KT //// // ////// 29/25 Q1013
YBBN 302210Z 20018G29KT 9999 FEW020 SCT040 24/16 Q1005 RMK FM2210 MOD/SEV TURB BLW 5000FT FM2300 MOD TURB BLW 5000FT
TAF YBBN 301713Z 3017/3124 22016G30KT 9999 SCT025 SCT030 
     FM310300 18015KT 9999 SCT030 
     FM311200 21013KT 9999 SCT060
       
YBHI 302200Z AUTO 21009KT 9999 // NCD 11/04 Q1023
YBRM 302200Z AUTO 11008KT 9999 // NCD 28/19 Q1011
TAF YBRM 301704Z 3018/3118 14010KT CAVOK 
     FM310600 23012KT CAVOK
       
YBUD 302204Z AUTO 25016G26KT 9999 // NCD 20/10 Q1008
YBCS 302200Z 14003KT CAVOK 28/25 Q1009
TAF YBCS 301735Z 3018/3118 VRB06KT 9999 FEW015 
     FM310000 02010KT 9999 FEW025 
     FM310400 13012KT 9999 -SHRA FEW028 
     FM310800 17006KT 9999 FEW015
       
YSCB 302200Z 17010KT 9999 FEW035 11/04 Q1019 NOSIG
TAF YSCB 301700Z 3018/3118 17010KT 9999 FEW020 
     FM302200 16010KT CAVOK 
     FM310900 09006KT 9999 SCT020
       
YCAR 302200Z AUTO 15007KT 9999 // NCD 23/14 Q1014
YCAS 302200Z AUTO 20012KT //// // ////// 21/16 Q1007
YCDU 302200Z AUTO 06005KT 9999 // NCD 08/06 Q1025
YCAR 302200Z AUTO 15007KT 9999 // NCD 23/14 Q1014
YCAS 302200Z AUTO 20012KT //// // ////// 21/16 Q1007
YCBA 302200Z AUTO 19012KT 9999 NCD 13/04 Q1019 PRESENT WEATHER SENSOR US
YCBB 302200Z AUTO 17011KT //// // ////// 14/10 Q1015
YCBP 302200Z AUTO 14007KT 9999 NCD 13/03 Q1024
YCCY 302200Z AUTO 18009KT //// // ////// 22/03 Q1015
YCDU 302200Z AUTO 06005KT 9999 // NCD 08/06 Q1025
YCFS 302200Z AUTO 22022KT 9999 // SCT024 BKN054 OVC062 21/17 Q1009
TAF AMD YCFS 301730Z 3018/3118 21020G30KT 9999 -SHRA SCT015 BKN025 
     BECMG 3100/3102 18025G40KT 9999 -SHRA SCT020 SCT040 
     FM311000 20018G30KT 9999 SCT015 BKN030 INTER 3018/3024 4000 SHRA BKN012
       
YCIN 302200Z AUTO 16008KT //// // ////// 25/20 Q1010
TAF YCIN 301832Z 3020/3108 17008KT CAVOK 
     FM310600 06006KT CAVOK
       
YCNM 302200Z AUTO 19012KT //// // ////// 14/08 Q1015
YCOM 302200Z AUTO 21009KT 9999 // SCT021 07/04 Q1020
YBCV 302200Z AUTO 18009KT 9999 // NCD 16/M01 Q1016
YCCY 302200Z AUTO 18009KT //// // ////// 22/03 Q1015
YCBA 302200Z AUTO 19012KT 9999 NCD 13/04 Q1019 PRESENT WEATHER SENSOR US
YCBP 302200Z AUTO 14007KT 9999 NCD 13/03 Q1024
YBCG 302230Z AUTO 20021G35KT 9999 // BKN032 OVC037 22/16 Q1004
TAF AMD YBCG 302149Z 3021/3118 18025G40KT 9999 BKN025 BKN045 
     FM310900 20020G30KT 9999 SCT020 BKN040
       
YCOM 302200Z AUTO 21009KT 9999 // SCT021 07/04 Q1020
YCBB 302200Z AUTO 17011KT //// // ////// 14/10 Q1015
YCNM 302200Z AUTO 19012KT //// // ////// 14/08 Q1015
YCIN 302200Z AUTO 16008KT //// // ////// 25/20 Q1010
TAF YCIN 301832Z 3020/3108 17008KT CAVOK 
     FM310600 06006KT CAVOK
       
YPDN 302200Z 11004KT 060V150 9999 FEW022 SCT125 BKN180 24/23 Q1009 NOSIG
TAF YPDN 301720Z 3018/3124 19007KT 9999 SCT020 
     FM302000 27010KT 9999 SCT020 
     PROB30 
     TEMPO 3018/3021 VRB30G45KT 1000 TSRA BKN010 SCT020CB 
     PROB30 
     TEMPO 3105/3115 VRB30G45KT 1000 TSRA BKN010 SCT020CB
       
YDBY 302200Z AUTO 17007KT //// // ////// 26/22 Q1010
YSDU 302200Z AUTO 15011KT 9999 // NCD 14/08 Q1016
TAF YSDU 301657Z 3018/3112 18012KT CAVOK
       
YEML 302200Z AUTO 16010KT 9999 // NCD 19/12 Q1013
YESP 302200Z AUTO 32004KT 9999 // NCD 07/05 Q1025
YFRT 302200Z AUTO 09005KT //// // ////// 08/04 Q1025
TAF YFRT 301833Z 3020/3108 09007KT CAVOK 
     FM310300 17010KT CAVOK
       
YGEL 302200Z AUTO 11007KT 9999 // NCD 16/09 Q1017
TAF YGEL 301634Z 3018/3112 12006KT CAVOK 
     FM310000 06008KT CAVOK 
     FM310500 19016KT CAVOK
       
YGLA 302200Z AUTO 23011G21KT 9999 // NCD 20/08 Q1010
TAF AMD YGLA 301957Z 3019/3112 21010KT CAVOK 
     FM310600 02005KT CAVOK 
     FM311000 21005KT CAVOK
       
YPGV 302200Z 00000KT 9999 FEW011 BKN150 BKN280 27/25 Q1010
TAF YPGV 301929Z 3020/3108 34005KT 9999 SCT020 
     PROB30 
     TEMPO 3104/3108 VRB20G35KT 1000 TSRA BKN010 SCT020CB
       
YGFN 302231Z AUTO 19015G26KT 9999 // BKN037 BKN091 22/16 Q1008
YGTH 302200Z AUTO 18006KT 9999 // NCD 11/06 Q1020
YGTE 302200Z AUTO 10002KT 9999 // NCD 28/26 Q1010
YBHM 302200Z AUTO ///07KT 9999 // NCD ///// Q1010
TAF AMD YBHM 302013Z 3020/3106 31014KT 9999 FEW008 
     FM302200 16018KT 9999 FEW025 
     FM310400 13015KT 9999 FEW030
       
YMHB 302200Z 32010KT CAVOK 08/04 Q1020
TAF YMHB 301714Z 3018/3118 32014KT CAVOK 
     FM310300 28008KT 9999 FEW040
       
YHID 302230Z AUTO 34012KT 9999 -SHRA SCT008 BKN013 OVC020 27/27 Q1011
TAF YHID 301736Z 3018/3118 32010KT 9999 SCT020 
     PROB30 
     TEMPO 3018/3102 VRB15G25KT 1000 TSRA BKN010 SCT015CB 
     PROB30 
     TEMPO 3114/3118 VRB15G25KT 1000 TSRA BKN010 SCT015CB
       
YHUG 302200Z AUTO 16005KT //// // ////// 22/03 Q1014
YPKG 302200Z AUTO 05006KT 9999 // NCD 13/07 Q1024
TAF AMD YPKG 301706Z 3018/3118 08006KT CAVOK
       
YKRY 302200Z AUTO 24006KT 9999 // OVC027 16/11 Q1010
YKRY 302200Z AUTO 24006KT 9999 // OVC027 16/11 Q1010
YPKU 302200Z AUTO 07004KT 9999 // NCD 26/24 Q1012
TAF YPKU 301832Z 3020/3108 VRB03KT CAVOK 
     FM310000 11012KT CAVOK
       
YMLT 302200Z AUTO 17005KT 9999 // OVC034 08/04 Q1020 RF00.0/000.0
TAF YMLT 301716Z 3018/3118 19008KT 9999 BKN040 
     FM310200 32012KT 9999 SCT035
       
YPLM 302200Z AUTO 00000KT 9999 // NCD 25/22 Q1014
TAF YPLM 301705Z 3018/3118 VRB03KT CAVOK 
     FM310400 04010KT 9999 -SHRA SCT080 
     FM310800 24010KT CAVOK
       
YLEC 302200Z AUTO 21002KT //// // ////// 13/03 Q1023
YLEC 302200Z AUTO 21002KT //// // ////// 13/03 Q1023
YLHI 302200Z 04015KT 9999 FEW026 BKN060 BKN080 24/20 Q1009
TAF AMD YLHI 301851Z 3019/3118 03020G35KT 9999 -SHRA SCT020 BKN030 
     BECMG 3101/3102 05025G40KT 7000 SHRA SCT015 BKN020 
     FM311400 05020G30KT 9999 -SHRA SCT010 BKN015 INTER 3019/3102 3000 SHRA BKN015 
     TEMPO 3102/3114 2000 SHRA BKN010 INTER 3114/3118 4000 SHRA BKN015
       
YLRE 302200Z 15013KT CAVOK 20/01 Q1015
YLRE 302200Z 15013KT CAVOK 20/01 Q1015
YBMK 302200Z AUTO 18006KT 9999 // NCD 26/22 Q1010
YMAV 302200Z AUTO 28010KT 9999 // OVC055 12/08 Q1022 RF00.0/000.2
TAF YMAV 301701Z 3018/3118 28007KT 9999 SCT040 
     FM310000 23012KT 9999 SCT045 
     BECMG 3109/3111 31010KT 9999 SCT045
       
YMAY 302200Z AUTO 16005KT 9999 // NCD 11/05 Q1020
YMDG 302200Z AUTO 14006KT 110V180 9999 // NCD 15/09 Q1016
YMEK 302200Z AUTO 09007KT 9999 // NCD 17/09 Q1020
YMEN 302200Z AUTO 28007KT 9999 // BKN038 OVC050 11/07 Q1022
YMER 302200Z AUTO 26008KT 9999 // NCD 16/08 Q1018
YMHB 302200Z 32010KT CAVOK 08/04 Q1020
TAF YMHB 301714Z 3018/3118 32014KT CAVOK 
     FM310300 28008KT 9999 FEW040
       
YMIA 302200Z AUTO 19005KT 9999 // NCD 09/04 Q1024
YMLT 302200Z AUTO 17005KT 9999 // OVC034 08/04 Q1020 RF00.0/000.0
TAF YMLT 301716Z 3018/3118 19008KT 9999 BKN040 
     FM310200 32012KT 9999 SCT035
       
YMML 302200Z 27006KT 9999 FEW020 SCT040 10/06 Q1022 NOSIG
TAF YMML 301701Z 3018/3124 27005KT 9999 -SHRA BKN040 
     FM310000 22012KT 9999 SCT045 
     BECMG 3110/3112 33007KT 9999 SCT045 
     BECMG 3118/3120 25012KT 9999 BKN020
       
YMOR 302200Z AUTO 21015KT 9999 // NCD 17/11 Q1012
YMTG 302200Z AUTO 34007KT 9999 // OVC044 11/07 Q1023
YMEK 302200Z AUTO 09007KT 9999 // NCD 17/09 Q1020
YMEN 302200Z AUTO 28007KT 9999 // BKN038 OVC050 11/07 Q1022
YMML 302200Z 27006KT 9999 FEW020 SCT040 10/06 Q1022 NOSIG
TAF YMML 301701Z 3018/3124 27005KT 9999 -SHRA BKN040 
     FM310000 22012KT 9999 SCT045 
     BECMG 3110/3112 33007KT 9999 SCT045 
     BECMG 3118/3120 25012KT 9999 BKN020
       
YMER 302200Z AUTO 26008KT 9999 // NCD 16/08 Q1018
YMIA 302200Z AUTO 19005KT 9999 // NCD 09/04 Q1024
YMOR 302200Z AUTO 21015KT 9999 // NCD 17/11 Q1012
YMTG 302200Z AUTO 34007KT 9999 // OVC044 11/07 Q1023
YBMA 302200Z AUTO 16009KT 9999 // NCD 20/02 Q1016
TAF YBMA 301613Z 3018/3106 17015KT CAVOK 
     FM302200 15014KT CAVOK
       
YMDG 302200Z AUTO 14006KT 110V180 9999 // NCD 15/09 Q1016
YNBR 302200Z AUTO 15009KT 9999 // OVC038 18/11 Q1013
YNAR 302200Z AUTO 20004KT //// // ////// 11/05 Q1020
YNWN 302200Z AUTO 20003KT 9999 // SCT100 21/13 Q1018
YNTN 302200Z AUTO 18012KT 9999 // NCD 25/11 Q1011
YSNW 302200Z 21010KT 9999 FEW040 16/05 Q1017 NOSIG
YBOK 302200Z AUTO 28009KT 9999 // OVC019 14/10 Q1011
YOLD 302200Z AUTO 18005KT 9999 // NCD 12/05 Q1023
TAF YOLD 301800Z 3019/3108 17010KT CAVOK
       
YPAD 302200Z 03003KT 9999 BKN048 13/07 Q1024 NOSIG
TAF YPAD 301713Z 3018/3124 06005KT 9999 SCT045 
     FM302000 03005KT 9999 BKN030 
     FM310200 22012KT 9999 BKN030 
     FM311700 22007KT 9999 -SHRA SCT025 BKN030
       
YPBO 302200Z AUTO 05005KT 9999 // BKN093 BKN110 24/14 Q1017
YPCC 302200Z AUTO 14009KT 9999 // SCT019 27/23 Q1012
TAF YPCC 301702Z 3018/3118 15012KT 9999 -SHRA SCT020
       
YPDN 302200Z 11004KT 060V150 9999 FEW022 SCT125 BKN180 24/23 Q1009 NOSIG
TAF YPDN 301720Z 3018/3124 19007KT 9999 SCT020 
     FM302000 27010KT 9999 SCT020 
     PROB30 
     TEMPO 3018/3021 VRB30G45KT 1000 TSRA BKN010 SCT020CB 
     PROB30 
     TEMPO 3105/3115 VRB30G45KT 1000 TSRA BKN010 SCT020CB
       
YPEA 302200Z 21006KT CAVOK 16/05 Q1021 FM2300 10010KT CAVOK
TAF YPEA 302229Z 3100/3118 10010KT CAVOK 
     FM311600 09017G27KT CAVOK
       
YPGV 302200Z 00000KT 9999 FEW011 BKN150 BKN280 27/25 Q1010
TAF YPGV 301929Z 3020/3108 34005KT 9999 SCT020 
     PROB30 
     TEMPO 3104/3108 VRB20G35KT 1000 TSRA BKN010 SCT020CB
       
YPJT 302200Z AUTO 13001KT 9999 // NCD 09/07 Q1022 RF00.0/000.0
TAF YPJT 301636Z 3018/3112 10007KT CAVOK 
     FM310700 19008KT CAVOK 
     FM311000 12008KT CAVOK
       
YPKG 302200Z AUTO 05006KT 9999 // NCD 13/07 Q1024
TAF AMD YPKG 301706Z 3018/3118 08006KT CAVOK
       
YPKU 302200Z AUTO 07004KT 9999 // NCD 26/24 Q1012
TAF YPKU 301832Z 3020/3108 VRB03KT CAVOK 
     FM310000 11012KT CAVOK
       
YPLM 302200Z AUTO 00000KT 9999 // NCD 25/22 Q1014
TAF YPLM 301705Z 3018/3118 VRB03KT CAVOK 
     FM310400 04010KT 9999 -SHRA SCT080 
     FM310800 24010KT CAVOK
       
YPMQ 302121Z AUTO 23008KT 9999 // SCT013 SCT017 BKN030 18/18 Q1011
YPPD 302200Z AUTO 15006KT //// // NCD 26/23 Q1013
TAF YPPD 301705Z 3018/3118 14010KT CAVOK 
     FM310000 12014G24KT CAVOK 
     FM310400 12010KT CAVOK
       
YPPH 302200Z 32005KT CAVOK 11/06 Q1022 NOSIG
TAF YPPH 301701Z 3018/3124 10007KT CAVOK 
     FM311600 09017G27KT CAVOK
       
YPTN 302200Z AUTO 00000KT 9999 // NCD 26/23 Q1011
TAF YPTN 301705Z 3018/3118 18005KT 9999 SCT030 
     FM310000 12012KT 9999 FEW030
       
YPWR 302200Z AUTO 15007KT 9999 // NCD 13/06 Q1024
TAF YPWR 301658Z 3018/3112 15010KT CAVOK 
     FM310200 19012KT CAVOK
       
YPXM 302200Z AUTO 00000KT 9999 // NCD 23/23 Q1011
TAF YPXM 301702Z 3018/3118 29007KT 9999 -SHRA SCT020 INTER 3018/3118 2000 SHRA BKN008
       
YPBO 302200Z AUTO 05005KT 9999 // BKN093 BKN110 24/14 Q1017
YPEA 302200Z 21006KT CAVOK 16/05 Q1021 FM2300 10010KT CAVOK
TAF YPEA 302229Z 3100/3118 10010KT CAVOK 
     FM311600 09017G27KT CAVOK
       
YPPH 302200Z 32005KT CAVOK 11/06 Q1022 NOSIG
TAF YPPH 301701Z 3018/3124 10007KT CAVOK 
     FM311600 09017G27KT CAVOK
       
YPJT 302200Z AUTO 13001KT 9999 // NCD 09/07 Q1022 RF00.0/000.0
TAF YPJT 301636Z 3018/3112 10007KT CAVOK 
     FM310700 19008KT CAVOK 
     FM311000 12008KT CAVOK
       
YPPD 302200Z AUTO 15006KT //// // NCD 26/23 Q1013
TAF YPPD 301705Z 3018/3118 14010KT CAVOK 
     FM310000 12014G24KT CAVOK 
     FM310400 12010KT CAVOK
       
YPMQ 302121Z AUTO 23008KT 9999 // SCT013 SCT017 BKN030 18/18 Q1011
YBPN 302200Z AUTO 00000KT 9999 // NCD 27/26 Q1009
YSRI 302200Z AUTO 21009KT 9999 OVC036 17/09 Q1017 RF00.0/032.6 PRESENT WEATHER SENSOR US
TAF YSRI 301728Z 3018/3118 20015KT 9999 -SHRA FEW010 BKN025 
     FM310000 17015KT 9999 SCT030 
     FM310500 18015KT 9999 FEW040 
     FM311000 22008KT 9999 SCT020
       
YRMD 302200Z AUTO 15009KT //// // ////// 22/06 Q1014
TAF YRMD 301817Z 3020/3108 15012KT CAVOK
       
YBRK 302200Z AUTO 20011KT 9999 // NCD 20/08 Q1011
TAF YBRK 301709Z 3018/3118 22010KT CAVOK 
     FM311200 24005KT CAVOK
       
YSCB 302200Z 17010KT 9999 FEW035 11/04 Q1019 NOSIG
TAF YSCB 301700Z 3018/3118 17010KT 9999 FEW020 
     FM302200 16010KT CAVOK 
     FM310900 09006KT 9999 SCT020
       
YSDU 302200Z AUTO 15011KT 9999 // NCD 14/08 Q1016
TAF YSDU 301657Z 3018/3112 18012KT CAVOK
       
YSNF 302200Z 07012KT CAVOK 24/20 Q1016
TAF YSNF 301728Z 3018/3118 08012KT 9999 -SHRA SCT020 SCT030 
     FM311000 06010KT 9999 -SHRA SCT015 BKN020
       
YSNW 302200Z 21010KT 9999 FEW040 16/05 Q1017 NOSIG
YSRI 302200Z AUTO 21009KT 9999 OVC036 17/09 Q1017 RF00.0/032.6 PRESENT WEATHER SENSOR US
TAF YSRI 301728Z 3018/3118 20015KT 9999 -SHRA FEW010 BKN025 
     FM310000 17015KT 9999 SCT030 
     FM310500 18015KT 9999 FEW040 
     FM311000 22008KT 9999 SCT020
       
YSSY 302200Z 22015KT 9999 SCT037 17/12 Q1016 NOSIG
TAF YSSY 301610Z 3018/3124 21020G30KT 9999 -SHRA SCT025 BKN040 
     FM310000 19020G30KT 9999 SCT040 
     FM310900 20015KT 9999 SCT030 BKN040 
     FM311800 25008KT 9999 SCT030
       
YSTW 302200Z AUTO 16011KT 9999 // SCT038 18/12 Q1013 RF00.0/008.6
TAF YSTW 301655Z 3018/3112 18010KT 9999 SCT020 BKN040 
     FM310000 17015KT 9999 SCT060 
     FM310900 15010KT 9999 FEW040
       
YSWG 302200Z 13007KT CAVOK 13/03 Q1019
YKRY 302200Z AUTO 24006KT 9999 // OVC027 16/11 Q1010
YSSY 302200Z 22015KT 9999 SCT037 17/12 Q1016 NOSIG
TAF YSSY 301610Z 3018/3124 21020G30KT 9999 -SHRA SCT025 BKN040 
     FM310000 19020G30KT 9999 SCT040 
     FM310900 20015KT 9999 SCT030 BKN040 
     FM311800 25008KT 9999 SCT030
       
YSTW 302200Z AUTO 16011KT 9999 // SCT038 18/12 Q1013 RF00.0/008.6
TAF YSTW 301655Z 3018/3112 18010KT 9999 SCT020 BKN040 
     FM310000 17015KT 9999 SCT060 
     FM310900 15010KT 9999 FEW040
       
YTRE 302200Z AUTO 26007KT //// BKN029 BKN042 BKN054 18/17 Q1012 PRESENT WEATHER SENSOR US
TAF YTRE 301257Z 3014/3102 20014KT 9999 -SHRA SCT008 BKN012 
     BECMG 3022/3023 18018G30KT 9999 -SHRA SCT020 BKN030 INTER 3014/3020 4000 SHRA BKN010
       
YTEF 302200Z AUTO 13008KT 9999 // NCD 25/13 Q1016
YTNK 302200Z AUTO 12015KT 9999 // NCD 20/20 Q1017
TAF YTNK 301927Z 3020/3108 13014KT CAVOK
       
YTEF 302200Z AUTO 13008KT 9999 // NCD 25/13 Q1016
YTNK 302200Z AUTO 12015KT 9999 // NCD 20/20 Q1017
TAF YTNK 301927Z 3020/3108 13014KT CAVOK
       
YTRE 302200Z AUTO 26007KT //// BKN029 BKN042 BKN054 18/17 Q1012 PRESENT WEATHER SENSOR US
TAF YTRE 301257Z 3014/3102 20014KT 9999 -SHRA SCT008 BKN012 
     BECMG 3022/3023 18018G30KT 9999 -SHRA SCT020 BKN030 INTER 3014/3020 4000 SHRA BKN010
       
YPTN 302200Z AUTO 00000KT 9999 // NCD 26/23 Q1011
TAF YPTN 301705Z 3018/3118 18005KT 9999 SCT030 
     FM310000 12012KT 9999 FEW030
       
YBTL 302200Z 21010KT CAVOK 29/15 Q1009 NOSIG
TAF AMD YBTL 301605Z 3016/3118 VRB03KT 9999 FEW010 
     FM302000 20013KT 9999 FEW030 
     FM310400 07013KT 9999 FEW040 
     FM311000 16007KT 9999 FEW012 
     TEMPO 3016/3020 9999 NSW BKN006
       
YSWG 302200Z 13007KT CAVOK 13/03 Q1019
YWGT 302200Z AUTO 16004KT 9999 // NCD 09/05 Q1021
TAF YWGT 301717Z 3019/3108 20007KT CAVOK
       
YBWP 302200Z AUTO 17001KT 9999 // SCT032 27/25 Q1010
YWHA 302200Z AUTO 00000KT 9999 // BKN045 12/08 Q1024
YWLM 302200Z 25011KT 9999 -SHRA SCT020 BKN035 16/14 Q1014 INTER 2200/2400 4000 SHRA BKN012 FM2200 MOD TURB BLW 5000FT
TAF AMD YWLM 301818Z 3018/3118 20015G25KT 9999 -SHRA SCT015 BKN025 
     FM310000 19018G30KT 9999 -SHRA FEW020 SCT040 
     FM310900 18012KT 9999 SCT020 SCT030 INTER 3018/3024 4000 SHRA BKN012
       
YPWR 302200Z AUTO 15007KT 9999 // NCD 13/06 Q1024
TAF YPWR 301658Z 3018/3112 15010KT CAVOK 
     FM310200 19012KT CAVOK